createdAt,value
2022-08-07T00:02:40.744Z,101287.09
2022-08-07T00:05:32.664Z,101288.13
2022-08-07T00:08:24.872Z,101284.78
2022-08-07T00:11:13.388Z,101281.31
2022-08-07T00:14:08.635Z,101281.72
2022-08-07T00:16:59.979Z,101283.75
2022-08-07T00:20:01.288Z,101285.22
2022-08-07T00:22:52.030Z,101286.25
2022-08-07T00:25:41.575Z,101282.13
2022-08-07T00:28:33.711Z,101281.28
2022-08-07T00:31:22.875Z,101288.03
2022-08-07T00:34:11.629Z,101277.50
2022-08-07T00:37:01.742Z,101280.41
2022-08-07T00:39:54.254Z,101278.56
2022-08-07T00:42:43.215Z,101277.50
2022-08-07T00:45:39.432Z,101272.94
2022-08-07T00:48:30.918Z,101275.03
2022-08-07T00:51:20.751Z,101279.97
2022-08-07T00:54:12.257Z,101276.91
2022-08-07T00:57:12.315Z,101265.09
2022-08-07T01:00:00.809Z,101273.38
2022-08-07T01:02:49.423Z,101278.53
2022-08-07T01:05:41.035Z,101269.59
2022-08-07T01:08:51.243Z,101268.56
2022-08-07T01:12:09.281Z,101278.97
2022-08-07T01:14:56.932Z,101272.31
2022-08-07T01:17:49.358Z,101270.28
2022-08-07T01:20:45.173Z,101271.13
2022-08-07T01:23:49.219Z,101270.13
2022-08-07T01:26:37.944Z,101273.84
2022-08-07T01:29:31.535Z,101273.78
2022-08-07T01:32:23.054Z,101272.63
2022-08-07T01:35:11.938Z,101271.38
2022-08-07T01:38:06.207Z,101272.22
2022-08-07T01:41:03.311Z,101266.88
2022-08-07T01:43:52.351Z,101272.22
2022-08-07T01:46:41.844Z,101270.56
2022-08-07T01:49:31.862Z,101274.28
2022-08-07T01:52:21.687Z,101275.94
2022-08-07T01:55:22.567Z,101271.38
2022-08-07T01:58:27.319Z,101276.75
2022-08-07T02:01:59.034Z,101268.28
2022-08-07T02:04:32.779Z,101277.16
2022-08-07T02:07:22.626Z,101279.47
2022-08-07T02:10:25.601Z,101276.78
2022-08-07T02:13:16.949Z,101275.53
2022-08-07T02:16:08.412Z,101280.28
2022-08-07T02:19:01.211Z,101279.25
2022-08-07T02:21:55.858Z,101275.13
2022-08-07T02:24:46.272Z,101282.97
2022-08-07T02:27:41.204Z,101283.81
2022-08-07T02:30:32.024Z,101288.09
2022-08-07T02:33:22.411Z,101284.53
2022-08-07T02:36:28.989Z,101278.75
2022-08-07T02:39:42.485Z,101291.72
2022-08-07T02:42:29.109Z,101288.63
2022-08-07T02:45:59.354Z,101283.63
2022-08-07T02:48:29.518Z,101286.13
2022-08-07T02:51:41.672Z,101284.94
2022-08-07T02:54:30.859Z,101278.31
2022-08-07T02:57:20.559Z,101281.34
2022-08-07T03:00:12.385Z,101281.13
2022-08-07T03:03:06.150Z,101283.41
2022-08-07T03:05:56.596Z,101281.97
2022-08-07T03:08:45.428Z,101282.31
2022-08-07T03:11:38.702Z,101283.97
2022-08-07T03:14:28.081Z,101279.84
2022-08-07T03:17:17.489Z,101268.72
2022-08-07T03:20:07.520Z,101272.03
2022-08-07T03:22:58.923Z,101270.78
2022-08-07T03:25:58.136Z,101268.47
2022-08-07T03:28:47.919Z,101265.38
2022-08-07T03:31:42.779Z,101267.47
2022-08-07T03:34:33.253Z,101266.44
2022-08-07T03:37:29.217Z,101267.47
2022-08-07T03:40:23.157Z,101266.63
2022-08-07T03:43:14.588Z,101267.84
2022-08-07T03:46:04.168Z,101253.34
2022-08-07T03:49:02.675Z,101259.47
2022-08-07T03:52:01.176Z,101254.56
2022-08-07T03:54:54.141Z,101258.44
2022-08-07T03:58:33.614Z,101256.78
2022-08-07T04:00:59.450Z,101255.59
2022-08-07T04:03:53.313Z,101260.28
2022-08-07T04:06:44.313Z,101258.63
2022-08-07T04:09:45.456Z,101262.97
2022-08-07T04:12:39.133Z,101276.75
2022-08-07T04:15:29.822Z,101274.72
2022-08-07T04:18:57.082Z,101270.19
2022-08-07T04:21:27.249Z,101266.78
2022-08-07T04:24:30.666Z,101272.88
2022-08-07T04:27:25.686Z,101273.97
2022-08-07T04:30:35.641Z,101273.56
2022-08-07T04:33:26.397Z,101274.59
2022-08-07T04:36:16.572Z,101279.56
2022-08-07T04:39:11.430Z,101277.56
2022-08-07T04:42:03.847Z,101268.84
2022-08-07T04:45:02.673Z,101267.59
2022-08-07T04:48:02.649Z,101275.91
2022-08-07T04:51:09.436Z,101281.63
2022-08-07T04:54:06.283Z,101274.59
2022-08-07T04:58:10.607Z,101280.81
2022-08-07T05:00:17.394Z,101283.59
2022-08-07T05:03:49.885Z,101282.91
2022-08-07T05:06:43.532Z,101271.56
2022-08-07T05:09:45.609Z,101286.31
2022-08-07T05:12:46.441Z,101278.50
2022-08-07T05:15:45.631Z,101278.78
2022-08-07T05:18:36.982Z,101283.63
2022-08-07T05:21:59.393Z,101283.53
2022-08-07T05:24:40.610Z,101294.69
2022-08-07T05:28:16.365Z,101292.31
2022-08-07T05:30:39.839Z,101290.88
2022-08-07T05:33:29.366Z,101290.31
2022-08-07T05:36:22.316Z,101285.97
2022-08-07T05:40:07.007Z,101291.34
2022-08-07T05:42:34.237Z,101299.47
2022-08-07T05:45:25.980Z,101293.22
2022-08-07T05:48:32.543Z,101287.97
2022-08-07T05:51:23.607Z,101292.06
2022-08-07T05:54:30.862Z,101302.19
2022-08-07T05:57:22.203Z,101303.09
2022-08-07T06:00:16.342Z,101298.94
2022-08-07T06:03:07.304Z,101299.41
2022-08-07T06:05:56.378Z,101304.44
2022-08-07T06:08:45.624Z,101296.16
2022-08-07T06:11:35.538Z,101289.88
2022-08-07T06:14:28.505Z,101297.81
2022-08-07T06:17:22.448Z,101292.47
2022-08-07T06:20:25.719Z,101295.38
2022-08-07T06:23:46.724Z,101295.78
2022-08-07T06:26:29.496Z,101292.97
2022-08-07T06:29:18.078Z,101291.38
2022-08-07T06:32:09.419Z,101286.00
2022-08-07T06:35:01.965Z,101297.22
2022-08-07T06:37:59.140Z,101285.94
2022-08-07T06:40:52.854Z,101300.91
2022-08-07T06:43:46.007Z,101304.22
2022-08-07T06:46:35.639Z,101296.91
2022-08-07T06:49:25.623Z,101290.81
2022-08-07T06:52:17.532Z,101290.03
2022-08-07T06:55:33.523Z,101292.59
2022-08-07T06:58:32.555Z,101288.50
2022-08-07T07:01:21.116Z,101286.47
2022-08-07T07:04:32.825Z,101293.50
2022-08-07T07:07:59.963Z,101285.97
2022-08-07T07:10:29.976Z,101284.03
2022-08-07T07:13:43.614Z,101278.38
2022-08-07T07:16:33.338Z,101279.56
2022-08-07T07:19:55.631Z,101279.56
2022-08-07T07:24:05.189Z,101280.38
2022-08-07T07:26:33.146Z,101272.56
2022-08-07T07:29:38.955Z,101275.25
2022-08-07T07:32:08.426Z,101268.47
2022-08-07T07:34:59.616Z,101264.66
2022-08-07T07:38:02.057Z,101260.69
2022-08-07T07:40:52.636Z,101263.00
2022-08-07T07:43:48.014Z,101259.53
2022-08-07T07:46:55.774Z,101253.53
2022-08-07T07:50:33.020Z,101246.94
2022-08-07T07:53:01.941Z,101251.09
2022-08-07T07:55:54.736Z,101245.38
2022-08-07T07:58:50.671Z,101241.97
2022-08-07T08:02:04.098Z,101246.25
2022-08-07T08:04:55.195Z,101246.97
2022-08-07T08:07:59.600Z,101241.94
2022-08-07T08:10:51.202Z,101244.03
2022-08-07T08:13:54.294Z,101237.59
2022-08-07T08:16:50.719Z,101244.09
2022-08-07T08:20:17.569Z,101240.28
2022-08-07T08:23:08.209Z,101236.56
2022-08-07T08:26:18.281Z,101237.81
2022-08-07T08:29:08.393Z,101233.94
2022-08-07T08:32:16.769Z,101234.22
2022-08-07T08:35:07.623Z,101236.06
2022-08-07T08:38:03.610Z,101231.31
2022-08-07T08:40:57.228Z,101227.66
2022-08-07T08:43:56.134Z,101225.19
2022-08-07T08:46:50.476Z,101218.31
2022-08-07T08:49:57.230Z,101221.28
2022-08-07T08:52:54.766Z,101208.09
2022-08-07T08:55:53.877Z,101215.59
2022-08-07T08:58:54.488Z,101220.59
2022-08-07T09:01:49.171Z,101217.66
2022-08-07T09:04:44.314Z,101217.28
2022-08-07T09:07:46.124Z,101225.13
2022-08-07T09:10:44.194Z,101220.09
2022-08-07T09:13:39.131Z,101219.28
2022-08-07T09:16:38.589Z,101214.78
2022-08-07T09:19:51.241Z,101220.16
2022-08-07T09:24:32.198Z,101214.16
2022-08-07T09:26:13.406Z,101205.72
2022-08-07T09:30:01.511Z,101197.47
2022-08-07T09:32:31.127Z,101192.16
2022-08-07T09:36:05.246Z,101195.88
2022-08-07T09:38:43.022Z,101191.78
2022-08-07T09:41:59.125Z,101188.88
2022-08-07T09:46:28.594Z,101186.00
2022-08-07T09:48:19.508Z,101180.97
2022-08-07T09:52:10.152Z,101179.34
2022-08-07T09:54:36.670Z,101174.88
2022-08-07T09:58:02.887Z,101171.59
2022-08-07T10:00:59.805Z,101165.56
2022-08-07T10:04:05.538Z,101159.22
2022-08-07T10:07:39.869Z,101157.97
2022-08-07T10:11:59.527Z,101156.34
2022-08-07T10:14:00.751Z,101141.22
2022-08-07T10:17:07.242Z,101135.53
2022-08-07T10:20:13.517Z,101135.72
2022-08-07T10:24:05.083Z,101129.06
2022-08-07T10:26:57.395Z,101131.13
2022-08-07T10:30:07.237Z,101125.22
2022-08-07T10:34:06.083Z,101122.09
2022-08-07T10:36:42.325Z,101117.94
2022-08-07T10:39:57.402Z,101110.94
2022-08-07T10:42:59.570Z,101108.88
2022-08-07T10:45:57.667Z,101102.28
2022-08-07T10:48:57.218Z,101091.19
2022-08-07T10:52:01.432Z,101091.81
2022-08-07T10:55:26.836Z,101086.25
2022-08-07T10:58:33.353Z,101085.59
2022-08-07T11:01:51.140Z,101086.28
2022-08-07T11:05:10.583Z,101082.97
2022-08-07T11:08:06.600Z,101075.13
2022-08-07T11:11:00.027Z,101072.63
2022-08-07T11:14:46.081Z,101078.44
2022-08-07T11:17:07.414Z,101064.81
2022-08-07T11:20:03.398Z,101060.66
2022-08-07T11:22:58.377Z,101057.38
2022-08-07T11:25:54.985Z,101043.31
2022-08-07T11:29:00.431Z,101052.41
2022-08-07T11:31:59.987Z,101042.47
2022-08-07T11:34:53.986Z,101051.59
2022-08-07T11:38:10.053Z,101043.75
2022-08-07T11:41:08.210Z,101042.13
2022-08-07T11:44:12.008Z,101039.63
2022-08-07T11:47:06.778Z,101040.06
2022-08-07T11:50:32.755Z,101027.25
2022-08-07T11:53:25.422Z,101023.06
2022-08-07T11:56:40.336Z,101024.53
2022-08-07T12:00:11.218Z,101011.53
2022-08-07T12:03:42.117Z,101008.19
2022-08-07T12:06:51.727Z,101004.06
2022-08-07T12:09:52.512Z,101006.16
2022-08-07T12:12:45.967Z,100997.44
2022-08-07T12:16:05.695Z,101006.16
2022-08-07T12:18:51.654Z,101002.00
2022-08-07T12:21:55.667Z,101001.59
2022-08-07T12:26:00.263Z,100997.03
2022-08-07T12:28:36.937Z,100991.28
2022-08-07T12:31:53.167Z,100995.63
2022-08-07T12:34:42.098Z,100992.50
2022-08-07T12:38:10.293Z,100983.81
2022-08-07T12:40:50.422Z,100980.50
2022-08-07T12:43:58.776Z,100974.72
2022-08-07T12:47:02.305Z,100971.81
2022-08-07T12:50:05.080Z,100969.94
2022-08-07T12:53:21.995Z,100969.72
2022-08-07T12:56:14.314Z,100966.38
2022-08-07T12:59:08.445Z,100960.97
2022-08-07T13:02:10.130Z,100963.91
2022-08-07T13:06:01.906Z,100961.84
2022-08-07T13:08:32.339Z,100964.31
2022-08-07T13:12:03.493Z,100957.88
2022-08-07T13:14:55.140Z,100957.66
2022-08-07T13:17:46.624Z,100957.88
2022-08-07T13:20:44.603Z,100944.03
2022-08-07T13:24:01.058Z,100943.63
2022-08-07T13:26:53.279Z,100945.22
2022-08-07T13:29:49.492Z,100946.91
2022-08-07T13:32:42.591Z,100936.53
2022-08-07T13:35:59.680Z,100935.94
2022-08-07T13:38:47.919Z,100921.19
2022-08-07T13:41:41.334Z,100928.66
2022-08-07T13:44:37.221Z,100925.34
2022-08-07T13:48:06.793Z,100916.22
2022-08-07T13:50:59.933Z,100914.59
2022-08-07T13:54:00.526Z,100918.25
2022-08-07T13:56:52.033Z,100904.78
2022-08-07T13:59:48.368Z,100905.84
2022-08-07T14:02:49.258Z,100902.50
2022-08-07T14:05:38.568Z,100887.81
2022-08-07T14:08:28.219Z,100894.22
2022-08-07T14:11:19.009Z,100895.69
2022-08-07T14:14:13.161Z,100897.72
2022-08-07T14:17:32.461Z,100885.53
2022-08-07T14:20:40.343Z,100880.72
2022-08-07T14:23:58.724Z,100889.59
2022-08-07T14:26:50.207Z,100883.78
2022-08-07T14:30:07.854Z,100883.03
2022-08-07T14:32:57.010Z,100888.31
2022-08-07T14:35:48.172Z,100887.09
2022-08-07T14:38:37.252Z,100889.78
2022-08-07T14:41:33.959Z,100890.44
2022-08-07T14:44:37.655Z,100892.13
2022-08-07T14:47:26.698Z,100888.00
2022-08-07T14:50:20.386Z,100893.34
2022-08-07T14:53:11.082Z,100879.69
2022-08-07T14:56:05.430Z,100881.69
2022-08-07T14:58:56.890Z,100877.34
2022-08-07T15:01:51.279Z,100877.91
2022-08-07T15:04:41.686Z,100879.97
2022-08-07T15:07:47.135Z,100871.94
2022-08-07T15:10:41.869Z,100870.53
2022-08-07T15:13:51.144Z,100877.47
2022-08-07T15:16:54.775Z,100870.59
2022-08-07T15:20:33.979Z,100868.69
2022-08-07T15:23:20.543Z,100869.94
2022-08-07T15:26:20.986Z,100871.22
2022-08-07T15:32:39.214Z,100870.84
2022-08-07T15:36:01.826Z,100864.50
2022-08-07T15:38:59.208Z,100855.72
2022-08-07T15:45:15.046Z,100848.34
2022-08-07T15:48:25.772Z,100854.97
2022-08-07T15:51:17.046Z,100847.69
2022-08-07T15:54:12.229Z,100846.16
2022-08-07T15:57:02.796Z,100837.41
2022-08-07T15:59:51.879Z,100842.78
2022-08-07T16:02:46.944Z,100847.63
2022-08-07T16:05:36.457Z,100839.56
2022-08-07T16:08:30.478Z,100840.47
2022-08-07T16:11:39.888Z,100839.88
2022-08-07T16:14:42.539Z,100831.34
2022-08-07T16:18:01.972Z,100838.19
2022-08-07T16:22:01.814Z,100830.88
2022-08-07T16:24:33.933Z,100840.16
2022-08-07T16:27:26.320Z,100840.00
2022-08-07T16:30:32.703Z,100834.84
2022-08-07T16:34:02.994Z,100839.56
2022-08-07T16:37:02.726Z,100831.22
2022-08-07T16:40:30.818Z,100841.66
2022-08-07T16:44:06.368Z,100841.50
2022-08-07T16:47:16.608Z,100832.72
2022-08-07T16:51:20.975Z,100835.66
2022-08-07T16:54:27.740Z,100826.34
2022-08-07T16:58:01.951Z,100834.63
2022-08-07T17:00:42.373Z,100829.03
2022-08-07T17:03:59.842Z,100839.00
2022-08-07T17:07:02.821Z,100833.63
2022-08-07T17:10:07.791Z,100828.88
2022-08-07T17:13:03.417Z,100840.28
2022-08-07T17:15:58.724Z,100834.94
2022-08-07T17:19:04.633Z,100841.19
2022-08-07T17:21:56.158Z,100833.41
2022-08-07T17:25:01.034Z,100832.59
2022-08-07T17:27:59.081Z,100834.69
2022-08-07T17:30:58.117Z,100831.59
2022-08-07T17:34:15.274Z,100824.78
2022-08-07T17:37:14.303Z,100832.69
2022-08-07T17:40:30.076Z,100844.22
2022-08-07T17:44:03.194Z,100836.44
2022-08-07T17:46:38.124Z,100827.81
2022-08-07T17:49:44.992Z,100845.19
2022-08-07T17:52:39.805Z,100838.97
2022-08-07T17:56:01.393Z,100835.25
2022-08-07T17:58:46.406Z,100834.00
2022-08-07T18:01:45.788Z,100838.13
2022-08-07T18:04:44.151Z,100829.91
2022-08-07T18:07:43.550Z,100835.91
2022-08-07T18:10:38.653Z,100828.25
2022-08-07T18:13:50.310Z,100832.63
2022-08-07T18:16:57.535Z,100828.72
2022-08-07T18:21:06.522Z,100839.06
2022-08-07T18:23:41.956Z,100841.56
2022-08-07T18:26:22.836Z,100838.47
2022-08-07T18:30:06.129Z,100840.75
2022-08-07T18:32:48.915Z,100839.53
2022-08-07T18:35:51.520Z,100836.25
2022-08-07T18:38:55.357Z,100842.44
2022-08-07T18:41:56.584Z,100845.34
2022-08-07T18:48:07.262Z,100859.41
2022-08-07T18:51:09.979Z,100865.16
2022-08-07T18:54:30.632Z,100867.25
2022-08-07T18:57:40.045Z,100869.72
2022-08-07T19:00:37.695Z,100872.63
2022-08-07T19:03:38.152Z,100873.66
2022-08-07T19:06:41.190Z,100882.16
2022-08-07T19:09:55.956Z,100880.50
2022-08-07T19:12:59.138Z,100887.94
2022-08-07T19:17:00.433Z,100887.13
2022-08-07T19:19:16.120Z,100889.19
2022-08-07T19:22:17.877Z,100894.75
2022-08-07T19:25:13.547Z,100891.69
2022-08-07T19:28:29.121Z,100897.25
2022-08-07T19:31:43.693Z,100901.59
2022-08-07T19:34:38.500Z,100893.97
2022-08-07T19:37:55.014Z,100899.34
2022-08-07T19:40:49.600Z,100900.16
2022-08-07T19:43:48.860Z,100903.22
2022-08-07T19:46:55.750Z,100903.84
2022-08-07T19:49:57.436Z,100909.84
2022-08-07T19:52:58.962Z,100906.53
2022-08-07T19:55:57.928Z,100906.97
2022-08-07T19:58:53.185Z,100909.66
2022-08-07T20:01:52.591Z,100912.78
2022-08-07T20:04:49.372Z,100915.22
2022-08-07T20:07:46.451Z,100907.59
2022-08-07T20:10:55.370Z,100913.59
2022-08-07T20:13:47.383Z,100916.88
2022-08-07T20:16:37.040Z,100916.50
2022-08-07T20:19:48.387Z,100921.47
2022-08-07T20:22:41.503Z,100924.75
2022-08-07T20:25:31.832Z,100918.56
2022-08-07T20:28:31.859Z,100930.75
2022-08-07T20:31:23.199Z,100930.13
2022-08-07T20:34:13.005Z,100928.06
2022-08-07T20:37:02.425Z,100930.13
2022-08-07T20:40:03.379Z,100933.25
2022-08-07T20:42:57.226Z,100929.28
2022-08-07T20:46:25.874Z,100926.41
2022-08-07T20:49:59.943Z,100934.06
2022-08-07T20:52:17.463Z,100930.13
2022-08-07T20:55:11.082Z,100930.94
2022-08-07T20:58:03.345Z,100935.91
2022-08-07T21:00:58.870Z,100933.81
2022-08-07T21:04:13.165Z,100945.78
2022-08-07T21:07:03.973Z,100947.00
2022-08-07T21:10:03.478Z,100946.38
2022-08-07T21:12:53.567Z,100949.06
2022-08-07T21:15:58.056Z,100947.00
2022-08-07T21:18:53.280Z,100947.25
2022-08-07T21:21:49.249Z,100953.63
2022-08-07T21:24:57.081Z,100956.09
2022-08-07T21:28:01.749Z,100952.78
2022-08-07T21:30:57.545Z,100954.44
2022-08-07T21:33:50.834Z,100954.03
2022-08-07T21:36:50.339Z,100957.97
2022-08-07T21:39:51.826Z,100968.53
2022-08-07T21:42:51.046Z,100963.16
2022-08-07T21:46:09.984Z,100960.88
2022-08-07T21:48:58.794Z,100959.44
2022-08-07T21:51:54.810Z,100958.44
2022-08-07T21:54:57.068Z,100965.84
2022-08-07T21:57:55.473Z,100966.88
2022-08-07T22:00:44.391Z,100964.81
2022-08-07T22:03:39.715Z,100970.41
2022-08-07T22:06:36.666Z,100973.91
2022-08-07T22:09:38.074Z,100973.50
2022-08-07T22:12:47.626Z,100973.47
2022-08-07T22:16:39.588Z,100973.50
2022-08-07T22:18:57.370Z,100976.38
2022-08-07T22:22:02.019Z,100976.75
2022-08-07T22:25:02.521Z,100978.78
2022-08-07T22:28:07.489Z,100978.63
2022-08-07T22:31:10.297Z,100978.59
2022-08-07T22:34:01.771Z,100976.94
2022-08-07T22:37:00.886Z,100979.41
2022-08-07T22:39:54.102Z,100971.75
2022-08-07T22:42:44.624Z,100979.16
2022-08-07T22:46:41.047Z,100979.59
2022-08-07T22:49:09.410Z,100977.13
2022-08-07T22:52:37.758Z,100981.25
2022-08-07T22:55:49.813Z,100982.03
2022-08-07T22:59:05.019Z,100984.50
2022-08-07T23:02:27.899Z,100988.84
2022-08-07T23:06:07.425Z,100980.78
2022-08-07T23:08:57.678Z,100988.19
2022-08-07T23:11:59.656Z,100981.56
2022-08-07T23:15:02.598Z,100990.41
2022-08-07T23:18:12.810Z,100981.72
2022-08-07T23:21:09.538Z,100984.41
2022-08-07T23:24:24.485Z,100987.88
2022-08-07T23:28:22.237Z,100986.81
2022-08-07T23:31:06.789Z,100986.41
2022-08-07T23:34:37.842Z,100995.44
2022-08-07T23:38:01.409Z,100999.81
2022-08-07T23:40:51.938Z,100988.44
2022-08-07T23:43:56.983Z,100997.13
2022-08-07T23:47:11.491Z,101000.81
2022-08-07T23:50:29.761Z,100998.75
2022-08-07T23:53:49.735Z,100997.50
2022-08-07T23:56:41.585Z,100990.72
